createdAt,value
2018-09-11T00:02:27.511Z,2.70
2018-09-11T00:04:56.315Z,2.90
2018-09-11T00:07:24.865Z,2.60
2018-09-11T00:09:53.417Z,2.63
2018-09-11T00:12:21.950Z,2.63
2018-09-11T00:14:50.502Z,2.47
2018-09-11T00:17:19.025Z,2.90
2018-09-11T00:19:47.571Z,2.80
2018-09-11T00:22:16.146Z,3.30
2018-09-11T00:24:44.708Z,2.30
2018-09-11T00:27:13.235Z,2.20
2018-09-11T00:29:41.816Z,2.93
2018-09-11T00:32:10.518Z,2.53
2018-09-11T00:34:39.080Z,2.60
2018-09-11T00:37:07.627Z,2.80
2018-09-11T00:39:36.503Z,2.70
2018-09-11T00:42:05.055Z,2.63
2018-09-11T00:44:33.581Z,2.70
2018-09-11T00:47:02.446Z,2.60
2018-09-11T00:49:31.024Z,2.77
2018-09-11T00:51:59.592Z,2.70
2018-09-11T00:54:28.382Z,2.83
2018-09-11T00:56:56.906Z,2.80
2018-09-11T00:59:25.450Z,2.70
2018-09-11T01:01:53.981Z,2.70
2018-09-11T01:04:22.567Z,2.80
2018-09-11T01:06:51.115Z,3.00
2018-09-11T01:09:19.660Z,2.87
2018-09-11T01:11:48.203Z,2.60
2018-09-11T01:14:16.768Z,2.70
2018-09-11T01:16:45.322Z,3.10
2018-09-11T01:19:13.885Z,2.93
2018-09-11T01:21:42.406Z,2.93
2018-09-11T01:24:11.123Z,2.73
2018-09-11T01:26:39.646Z,3.03
2018-09-11T01:29:08.203Z,3.03
2018-09-11T01:31:36.731Z,2.87
2018-09-11T01:34:05.709Z,2.60
2018-09-11T01:36:34.306Z,2.97
2018-09-11T01:39:02.971Z,3.27
2018-09-11T01:41:31.502Z,3.10
2018-09-11T01:44:00.067Z,2.70
2018-09-11T01:46:28.626Z,3.07
2018-09-11T01:48:57.138Z,3.00
2018-09-11T01:51:25.709Z,3.10
2018-09-11T01:53:54.243Z,3.30
2018-09-11T01:56:22.932Z,2.50
2018-09-11T01:58:51.679Z,2.90
2018-09-11T02:01:20.498Z,2.83
2018-09-11T02:03:49.022Z,3.70
2018-09-11T02:06:17.587Z,2.50
2018-09-11T02:08:46.114Z,3.23
2018-09-11T02:11:14.691Z,3.00
2018-09-11T02:13:43.231Z,3.07
2018-09-11T02:16:12.005Z,3.07
2018-09-11T02:18:40.528Z,2.90
2018-09-11T02:21:09.080Z,2.60
2018-09-11T02:23:37.590Z,2.70
2018-09-11T02:26:06.155Z,2.90
2018-09-11T02:28:34.689Z,2.70
2018-09-11T02:31:03.246Z,3.17
2018-09-11T02:33:31.757Z,3.17
2018-09-11T02:36:00.279Z,2.87
2018-09-11T02:38:28.755Z,2.90
2018-09-11T02:40:57.288Z,4.30
2018-09-11T02:43:25.767Z,2.73
2018-09-11T02:45:54.267Z,3.10
2018-09-11T02:48:22.757Z,3.20
2018-09-11T02:50:51.282Z,3.20
2018-09-11T02:53:19.953Z,3.30
2018-09-11T02:55:48.469Z,3.13
2018-09-11T02:58:16.954Z,3.87
2018-09-11T03:00:45.460Z,3.27
2018-09-11T03:03:13.953Z,3.47
2018-09-11T03:05:42.458Z,3.20
2018-09-11T03:08:10.953Z,3.53
2018-09-11T03:10:39.529Z,3.60
2018-09-11T03:13:08.006Z,2.80
2018-09-11T03:15:36.520Z,4.23
2018-09-11T03:18:05.023Z,3.10
2018-09-11T03:20:33.540Z,3.40
2018-09-11T03:23:02.008Z,2.80
2018-09-11T03:25:30.540Z,2.90
2018-09-11T03:27:59.044Z,3.80
2018-09-11T03:30:27.546Z,3.00
2018-09-11T03:32:56.091Z,3.10
2018-09-11T03:35:24.666Z,2.80
2018-09-11T03:37:53.198Z,3.97
2018-09-11T03:40:21.823Z,3.10
2018-09-11T03:42:50.415Z,3.27
2018-09-11T03:45:19.014Z,3.83
2018-09-11T03:47:47.594Z,3.20
2018-09-11T03:50:16.117Z,3.33
2018-09-11T03:52:44.674Z,3.10
2018-09-11T03:55:13.256Z,2.80
2018-09-11T03:57:41.834Z,4.80
2018-09-11T04:00:10.395Z,2.80
2018-09-11T04:02:38.910Z,2.87
2018-09-11T04:05:07.410Z,2.70
2018-09-11T04:07:35.925Z,2.73
2018-09-11T04:10:04.482Z,3.37
2018-09-11T04:12:33.004Z,3.00
2018-09-11T04:15:01.498Z,3.77
2018-09-11T04:17:35.284Z,3.40
2018-09-11T04:20:03.880Z,2.90
2018-09-11T04:22:32.454Z,2.80
2018-09-11T04:25:00.953Z,3.37
2018-09-11T04:27:29.457Z,3.63
2018-09-11T04:29:57.942Z,2.93
2018-09-11T04:32:26.510Z,3.00
2018-09-11T04:34:55.271Z,3.20
2018-09-11T04:37:23.919Z,3.20
2018-09-11T04:39:52.487Z,2.67
2018-09-11T04:42:21.049Z,3.00
2018-09-11T04:44:49.799Z,3.00
2018-09-11T04:47:19.400Z,3.17
2018-09-11T04:49:48.023Z,3.03
2018-09-11T04:52:16.555Z,3.10
2018-09-11T04:54:45.047Z,3.60
2018-09-11T04:57:13.572Z,3.50
2018-09-11T04:59:42.438Z,3.20
2018-09-11T05:02:11.494Z,2.93
2018-09-11T05:04:40.133Z,3.53
2018-09-11T05:07:08.828Z,3.90
2018-09-11T05:09:37.330Z,3.10
2018-09-11T05:12:05.921Z,2.93
2018-09-11T05:14:34.409Z,3.30
2018-09-11T05:17:02.928Z,3.37
2018-09-11T05:19:31.410Z,3.10
2018-09-11T05:21:59.921Z,3.57
2018-09-11T05:24:28.410Z,3.10
2018-09-11T05:26:56.923Z,3.40
2018-09-11T05:29:25.428Z,3.60
2018-09-11T05:31:53.998Z,3.10
2018-09-11T05:34:22.494Z,3.53
2018-09-11T05:36:50.992Z,3.47
2018-09-11T05:39:19.473Z,4.53
2018-09-11T05:41:54.583Z,3.93
2018-09-11T05:44:23.079Z,5.50
2018-09-11T05:46:51.603Z,7.30
2018-09-11T05:49:20.113Z,6.00
2018-09-11T05:51:48.624Z,5.60
2018-09-11T05:54:17.179Z,4.33
2018-09-11T05:56:45.702Z,4.37
2018-09-11T05:59:14.189Z,4.40
2018-09-11T06:01:42.755Z,4.20
2018-09-11T06:04:11.276Z,4.10
2018-09-11T06:06:39.780Z,4.40
2018-09-11T06:09:10.678Z,4.60
2018-09-11T06:11:39.205Z,3.83
2018-09-11T06:14:07.706Z,4.23
2018-09-11T06:16:36.202Z,3.50
2018-09-11T06:19:05.046Z,4.00
2018-09-11T06:21:33.786Z,3.50
2018-09-11T06:24:02.310Z,3.93
2018-09-11T06:26:31.783Z,4.37
2018-09-11T06:29:00.330Z,3.80
2018-09-11T06:31:28.926Z,3.90
2018-09-11T06:33:57.500Z,4.27
2018-09-11T06:36:26.010Z,3.90
2018-09-11T06:38:54.531Z,3.57
2018-09-11T06:41:23.004Z,4.30
2018-09-11T06:43:51.902Z,3.80
2018-09-11T06:46:20.411Z,3.73
2018-09-11T06:48:48.925Z,3.83
2018-09-11T06:51:17.535Z,3.80
2018-09-11T06:53:46.118Z,4.23
2018-09-11T06:56:14.615Z,4.10
2018-09-11T06:58:43.187Z,3.37
2018-09-11T07:01:11.702Z,3.93
2018-09-11T07:03:40.236Z,4.20
2018-09-11T07:06:08.750Z,4.30
2018-09-11T07:08:37.357Z,4.37
2018-09-11T07:11:06.286Z,3.70
2018-09-11T07:13:34.817Z,4.63
2018-09-11T07:16:03.330Z,4.30
2018-09-11T07:18:31.862Z,4.00
2018-09-11T07:21:00.355Z,4.10
2018-09-11T07:23:28.906Z,3.97
2018-09-11T07:25:57.457Z,4.37
2018-09-11T07:28:25.974Z,4.23
2018-09-11T07:30:54.556Z,5.10
2018-09-11T07:33:23.186Z,4.57
2018-09-11T07:35:51.689Z,5.07
2018-09-11T07:38:20.225Z,4.90
2018-09-11T07:40:48.721Z,4.60
2018-09-11T07:43:17.394Z,3.97
2018-09-11T07:45:45.905Z,5.00
2018-09-11T07:48:14.462Z,3.90
2018-09-11T07:50:43.972Z,4.37
2018-09-11T07:53:12.524Z,4.37
2018-09-11T07:55:41.014Z,4.70
2018-09-11T07:58:09.685Z,4.43
2018-09-11T08:00:38.301Z,4.87
2018-09-11T08:03:06.935Z,4.33
2018-09-11T08:05:35.408Z,4.80
2018-09-11T08:08:03.947Z,4.20
2018-09-11T08:10:32.469Z,3.73
2018-09-11T08:13:00.978Z,5.07
2018-09-11T08:15:29.519Z,4.80
2018-09-11T08:17:58.014Z,4.67
2018-09-11T08:20:26.524Z,5.40
2018-09-11T08:22:55.009Z,4.27
2018-09-11T08:25:23.533Z,4.93
2018-09-11T08:27:52.173Z,5.07
2018-09-11T08:30:20.724Z,4.40
2018-09-11T08:32:49.284Z,4.47
2018-09-11T08:35:17.903Z,4.53
2018-09-11T08:37:46.396Z,4.20
2018-09-11T08:40:14.925Z,4.53
2018-09-11T08:42:43.413Z,4.50
2018-09-11T08:45:11.941Z,4.60
2018-09-11T08:47:40.451Z,4.97
2018-09-11T08:50:09.023Z,4.70
2018-09-11T08:52:37.652Z,4.40
2018-09-11T08:55:06.390Z,4.80
2018-09-11T08:57:34.885Z,4.10
2018-09-11T09:00:03.504Z,4.10
2018-09-11T09:02:32.014Z,4.90
2018-09-11T09:05:00.554Z,4.50
2018-09-11T09:07:29.057Z,4.57
2018-09-11T09:09:57.664Z,4.20
2018-09-11T09:12:26.183Z,4.83
2018-09-11T09:14:54.718Z,4.13
2018-09-11T09:17:23.220Z,4.40
2018-09-11T09:19:51.754Z,4.00
2018-09-11T09:22:20.459Z,3.87
2018-09-11T09:24:49.000Z,3.50
2018-09-11T09:27:17.511Z,3.77
2018-09-11T09:29:46.061Z,4.07
2018-09-11T09:32:14.554Z,3.80
2018-09-11T09:34:43.076Z,4.73
2018-09-11T09:37:12.117Z,4.10
2018-09-11T09:39:40.864Z,4.12
2018-09-11T09:42:09.512Z,4.10
2018-09-11T09:44:38.353Z,3.80
2018-09-11T09:47:06.890Z,4.50
2018-09-11T09:49:35.399Z,4.00
2018-09-11T09:52:03.936Z,4.17
2018-09-11T09:54:32.464Z,3.90
2018-09-11T09:57:00.974Z,4.43
2018-09-11T09:59:29.601Z,3.97
2018-09-11T10:02:04.124Z,3.57
2018-09-11T10:04:33.393Z,4.10
2018-09-11T10:07:01.929Z,3.87
2018-09-11T10:09:30.429Z,3.77
2018-09-11T10:11:58.955Z,3.60
2018-09-11T10:14:27.452Z,4.10
2018-09-11T10:16:55.978Z,3.90
2018-09-11T10:19:24.482Z,3.33
2018-09-11T10:21:53.018Z,3.03
2018-09-11T10:24:21.522Z,2.77
2018-09-11T10:26:50.117Z,3.67
2018-09-11T10:29:18.605Z,3.83
2018-09-11T10:31:47.121Z,3.33
2018-09-11T10:34:15.639Z,3.17
2018-09-11T10:36:44.190Z,3.50
2018-09-11T10:39:12.736Z,3.10
2018-09-11T10:41:41.235Z,3.43
2018-09-11T10:44:09.758Z,3.60
2018-09-11T10:46:38.460Z,3.00
2018-09-11T10:49:07.198Z,3.10
2018-09-11T10:51:35.865Z,3.57
2018-09-11T10:54:04.417Z,3.10
2018-09-11T10:56:32.962Z,3.50
2018-09-11T10:59:01.508Z,3.63
2018-09-11T11:01:30.016Z,3.03
2018-09-11T11:03:58.637Z,3.03
2018-09-11T11:06:27.179Z,3.00
2018-09-11T11:08:55.689Z,3.83
2018-09-11T11:11:24.206Z,2.90
2018-09-11T11:13:52.696Z,3.20
2018-09-11T11:16:21.213Z,3.43
2018-09-11T11:18:49.723Z,3.47
2018-09-11T11:21:18.278Z,3.07
2018-09-11T11:23:46.938Z,3.27
2018-09-11T11:26:15.580Z,3.90
2018-09-11T11:28:44.082Z,3.10
2018-09-11T11:31:12.632Z,3.43
2018-09-11T11:33:41.137Z,4.10
2018-09-11T11:36:09.782Z,3.00
2018-09-11T11:38:38.262Z,2.97
2018-09-11T11:41:06.823Z,3.30
2018-09-11T11:43:35.447Z,3.80
2018-09-11T11:46:04.018Z,2.80
2018-09-11T11:48:32.554Z,3.17
2018-09-11T11:51:01.091Z,3.53
2018-09-11T11:53:29.603Z,3.37
2018-09-11T11:55:58.117Z,3.30
2018-09-11T11:58:26.632Z,3.00
2018-09-11T12:00:55.217Z,3.20
2018-09-11T12:03:23.745Z,2.80
2018-09-11T12:05:52.247Z,3.10
2018-09-11T12:08:20.794Z,3.60
2018-09-11T12:10:49.294Z,3.07
2018-09-11T12:13:17.922Z,3.20
2018-09-11T12:15:46.433Z,3.40
2018-09-11T12:18:15.052Z,2.80
2018-09-11T12:20:43.555Z,3.10
2018-09-11T12:23:12.070Z,3.03
2018-09-11T12:25:40.627Z,2.90
2018-09-11T12:28:09.275Z,3.63
2018-09-11T12:30:37.767Z,2.93
2018-09-11T12:33:06.705Z,3.00
2018-09-11T12:35:35.226Z,3.10
2018-09-11T12:38:04.116Z,3.20
2018-09-11T12:40:32.618Z,3.40
2018-09-11T12:43:01.129Z,3.23
2018-09-11T12:45:29.639Z,3.20
2018-09-11T12:47:58.652Z,3.00
2018-09-11T12:50:26.949Z,3.57
2018-09-11T12:52:55.487Z,3.00
2018-09-11T12:55:24.023Z,3.00
2018-09-11T12:57:52.562Z,2.50
2018-09-11T13:00:21.190Z,3.70
2018-09-11T13:02:49.724Z,2.90
2018-09-11T13:05:18.227Z,2.53
2018-09-11T13:07:46.742Z,2.63
2018-09-11T13:10:15.270Z,3.10
2018-09-11T13:12:44.031Z,2.50
2018-09-11T13:15:12.683Z,2.57
2018-09-11T13:17:45.290Z,2.80
2018-09-11T13:20:13.831Z,2.60
2018-09-11T13:22:42.352Z,2.50
2018-09-11T13:25:11.066Z,2.40
2018-09-11T13:27:39.562Z,2.70
2018-09-11T13:30:08.142Z,2.70
2018-09-11T13:32:36.652Z,2.43
2018-09-11T13:35:05.194Z,2.70
2018-09-11T13:37:33.713Z,2.70
2018-09-11T13:40:02.218Z,2.90
2018-09-11T13:42:30.756Z,2.97
2018-09-11T13:44:59.240Z,2.60
2018-09-11T13:47:28.149Z,3.40
2018-09-11T13:49:56.772Z,2.73
2018-09-11T13:52:25.373Z,2.70
2018-09-11T13:54:53.888Z,2.87
2018-09-11T13:57:22.447Z,2.93
2018-09-11T13:59:50.953Z,2.53
2018-09-11T14:02:19.796Z,3.03
2018-09-11T14:04:48.567Z,3.10
2018-09-11T14:07:17.170Z,2.87
2018-09-11T14:09:45.728Z,2.97
2018-09-11T14:12:14.234Z,3.27
2018-09-11T14:14:42.799Z,2.80
2018-09-11T14:17:11.398Z,2.60
2018-09-11T14:19:39.937Z,2.70
2018-09-11T14:22:08.469Z,2.80
2018-09-11T14:24:37.008Z,3.20
2018-09-11T14:27:05.664Z,3.03
2018-09-11T14:29:34.254Z,3.10
2018-09-11T14:32:02.786Z,3.00
2018-09-11T14:34:31.772Z,3.80
2018-09-11T14:37:00.796Z,3.10
2018-09-11T14:39:29.390Z,3.30
2018-09-11T14:41:57.926Z,3.00
2018-09-11T14:44:26.511Z,2.83
2018-09-11T14:46:55.056Z,2.83
2018-09-11T14:49:24.230Z,2.87
2018-09-11T14:51:52.788Z,2.77
2018-09-11T14:54:21.399Z,2.80
2018-09-11T14:56:50.027Z,3.30
2018-09-11T14:59:18.605Z,2.73
2018-09-11T15:01:47.290Z,3.27
2018-09-11T15:04:16.280Z,3.03
2018-09-11T15:06:44.859Z,3.07
2018-09-11T15:09:13.440Z,3.17
2018-09-11T15:11:42.109Z,2.80
2018-09-11T15:14:10.643Z,3.10
2018-09-11T15:16:39.202Z,3.03
2018-09-11T15:19:07.765Z,2.93
2018-09-11T15:21:36.416Z,3.17
2018-09-11T15:24:04.977Z,2.90
2018-09-11T15:26:33.525Z,3.20
2018-09-11T15:29:02.378Z,3.00
2018-09-11T15:31:30.934Z,3.10
2018-09-11T15:33:59.547Z,2.90
2018-09-11T15:36:28.081Z,2.83
2018-09-11T15:38:56.638Z,2.80
2018-09-11T15:41:25.347Z,3.10
2018-09-11T15:43:54.345Z,2.70
2018-09-11T15:46:22.997Z,3.13
2018-09-11T15:48:51.635Z,2.83
2018-09-11T15:51:20.206Z,3.10
2018-09-11T15:53:48.830Z,2.60
2018-09-11T15:56:17.417Z,2.17
2018-09-11T15:58:45.982Z,2.70
2018-09-11T16:01:14.649Z,2.90
2018-09-11T16:03:43.286Z,2.97
2018-09-11T16:06:11.838Z,2.67
2018-09-11T16:08:40.354Z,2.70
2018-09-11T16:11:09.010Z,2.90
2018-09-11T16:13:37.829Z,2.97
2018-09-11T16:16:06.743Z,3.10
2018-09-11T16:18:35.282Z,2.20
2018-09-11T16:21:03.932Z,3.10
2018-09-11T16:23:32.662Z,3.23
2018-09-11T16:26:01.211Z,2.90
2018-09-11T16:28:29.739Z,2.83
2018-09-11T16:30:58.302Z,2.97
2018-09-11T16:33:26.814Z,3.30
2018-09-11T16:35:55.345Z,3.10
2018-09-11T16:38:23.849Z,2.80
2018-09-11T16:40:52.776Z,2.80
2018-09-11T16:43:21.697Z,3.00
2018-09-11T16:45:50.228Z,3.17
2018-09-11T16:48:18.711Z,2.63
2018-09-11T16:50:47.221Z,3.60
2018-09-11T16:53:15.703Z,4.23
2018-09-11T16:55:44.221Z,8.40
2018-09-11T16:58:12.722Z,6.67
2018-09-11T17:00:41.283Z,7.30
2018-09-11T17:03:09.778Z,8.60
2018-09-11T17:05:38.306Z,4.50
2018-09-11T17:08:06.799Z,4.93
2018-09-11T17:10:35.329Z,4.37
2018-09-11T17:13:03.955Z,3.87
2018-09-11T17:15:32.459Z,3.90
2018-09-11T17:18:01.078Z,3.17
2018-09-11T17:20:29.590Z,3.27
2018-09-11T17:22:58.090Z,3.23
2018-09-11T17:25:26.605Z,3.53
2018-09-11T17:27:55.082Z,4.07
2018-09-11T17:30:23.623Z,3.20
2018-09-11T17:32:52.140Z,3.90
2018-09-11T17:35:20.655Z,3.87
2018-09-11T17:37:49.174Z,4.23
2018-09-11T17:40:17.690Z,4.23
2018-09-11T17:42:46.215Z,4.23
2018-09-11T17:45:14.711Z,4.53
2018-09-11T17:47:43.318Z,5.23
2018-09-11T17:50:11.907Z,4.93
2018-09-11T17:52:40.414Z,5.23
2018-09-11T17:55:08.992Z,5.70
2018-09-11T17:57:37.679Z,4.47
2018-09-11T18:00:06.444Z,5.37
2018-09-11T18:02:35.338Z,4.90
2018-09-11T18:05:04.940Z,5.10
2018-09-11T18:07:33.638Z,5.47
2018-09-11T18:10:02.174Z,5.07
2018-09-11T18:12:30.732Z,5.40
2018-09-11T18:14:59.299Z,4.83
2018-09-11T18:17:27.929Z,5.40
2018-09-11T18:19:57.460Z,6.10
2018-09-11T18:22:25.998Z,5.87
2018-09-11T18:24:54.896Z,5.63
2018-09-11T18:27:23.457Z,7.77
2018-09-11T18:29:51.992Z,6.17
2018-09-11T18:32:20.625Z,6.43
2018-09-11T18:34:49.356Z,4.90
2018-09-11T18:37:17.981Z,5.20
2018-09-11T18:39:46.425Z,4.77
2018-09-11T18:42:15.041Z,5.37
2018-09-11T18:44:43.572Z,5.27
2018-09-11T18:47:12.118Z,5.40
2018-09-11T18:49:40.662Z,5.07
2018-09-11T18:52:09.207Z,4.53
2018-09-11T18:54:37.739Z,4.77
2018-09-11T18:57:06.289Z,4.47
2018-09-11T18:59:34.856Z,5.00
2018-09-11T19:02:03.414Z,4.40
2018-09-11T19:04:31.951Z,4.77
2018-09-11T19:07:00.521Z,4.50
2018-09-11T19:09:29.071Z,4.80
2018-09-11T19:11:57.715Z,4.97
2018-09-11T19:14:26.248Z,5.00
2018-09-11T19:16:55.223Z,5.10
2018-09-11T19:19:23.770Z,6.37
2018-09-11T19:21:52.324Z,4.90
2018-09-11T19:24:20.850Z,6.10
2018-09-11T19:26:49.448Z,5.07
2018-09-11T19:29:17.989Z,5.30
2018-09-11T19:31:46.519Z,4.93
2018-09-11T19:34:15.073Z,4.47
2018-09-11T19:36:43.624Z,4.53
2018-09-11T19:39:12.138Z,5.03
2018-09-11T19:41:40.655Z,5.50
2018-09-11T19:44:09.225Z,4.80
2018-09-11T19:46:37.770Z,5.10
2018-09-11T19:49:06.474Z,4.90
2018-09-11T19:51:35.004Z,5.20
2018-09-11T19:54:03.492Z,5.90
2018-09-11T19:56:32.024Z,5.37
2018-09-11T19:59:00.607Z,5.97
2018-09-11T20:01:29.229Z,5.07
2018-09-11T20:03:57.717Z,5.83
2018-09-11T20:06:26.263Z,5.33
2018-09-11T20:08:54.770Z,5.80
2018-09-11T20:11:23.279Z,5.27
2018-09-11T20:13:51.802Z,4.70
2018-09-11T20:16:20.520Z,5.40
2018-09-11T20:18:49.067Z,5.10
2018-09-11T20:21:17.552Z,5.10
2018-09-11T20:23:46.075Z,5.53
2018-09-11T20:26:14.569Z,4.87
2018-09-11T20:28:43.113Z,5.00
2018-09-11T20:31:11.586Z,5.03
2018-09-11T20:33:40.123Z,5.17
2018-09-11T20:36:08.677Z,4.77
2018-09-11T20:38:37.197Z,4.57
2018-09-11T20:41:05.727Z,4.77
2018-09-11T20:43:34.226Z,4.90
2018-09-11T20:46:02.729Z,5.07
2018-09-11T20:48:31.379Z,4.60
2018-09-11T20:50:59.869Z,5.20
2018-09-11T20:53:28.374Z,4.97
2018-09-11T20:55:56.993Z,4.73
2018-09-11T20:58:25.575Z,6.07
2018-09-11T21:00:54.106Z,5.10
2018-09-11T21:03:22.621Z,5.40
2018-09-11T21:05:51.123Z,5.07
2018-09-11T21:08:19.642Z,5.20
2018-09-11T21:10:48.175Z,5.20
2018-09-11T21:13:16.684Z,6.20
2018-09-11T21:15:45.174Z,5.10
2018-09-11T21:18:13.690Z,5.30
2018-09-11T21:20:42.193Z,5.17
2018-09-11T21:23:10.889Z,5.43
2018-09-11T21:25:39.452Z,5.60
2018-09-11T21:28:08.060Z,5.43
2018-09-11T21:30:36.554Z,5.13
2018-09-11T21:33:05.123Z,5.77
2018-09-11T21:35:33.629Z,6.53
2018-09-11T21:38:02.138Z,5.20
2018-09-11T21:40:30.649Z,5.03
2018-09-11T21:42:59.446Z,5.07
2018-09-11T21:45:27.935Z,4.80
2018-09-11T21:47:56.530Z,5.47
2018-09-11T21:50:25.034Z,5.67
2018-09-11T21:52:53.561Z,5.10
2018-09-11T21:55:22.058Z,4.80
2018-09-11T21:57:50.560Z,4.90
2018-09-11T22:00:19.175Z,5.03
2018-09-11T22:02:47.624Z,5.80
2018-09-11T22:05:16.139Z,4.73
2018-09-11T22:07:44.720Z,4.00
2018-09-11T22:10:13.198Z,5.07
2018-09-11T22:12:42.128Z,5.07
2018-09-11T22:15:11.445Z,4.60
2018-09-11T22:17:40.036Z,4.50
2018-09-11T22:20:08.665Z,5.13
2018-09-11T22:22:37.163Z,4.60
2018-09-11T22:25:05.781Z,4.53
2018-09-11T22:27:34.280Z,4.37
2018-09-11T22:30:02.803Z,5.40
2018-09-11T22:32:31.420Z,4.90
2018-09-11T22:35:00.017Z,4.80
2018-09-11T22:37:28.506Z,4.83
2018-09-11T22:39:57.014Z,4.97
2018-09-11T22:42:25.508Z,4.67
2018-09-11T22:44:54.018Z,4.50
2018-09-11T22:47:22.533Z,4.57
2018-09-11T22:49:51.130Z,4.27
2018-09-11T22:52:19.602Z,4.47
2018-09-11T22:54:48.101Z,5.00
2018-09-11T22:57:16.646Z,5.17
2018-09-11T22:59:45.172Z,4.37
2018-09-11T23:02:13.653Z,5.00
2018-09-11T23:04:42.186Z,4.77
2018-09-11T23:07:10.896Z,5.00
2018-09-11T23:09:39.424Z,5.30
2018-09-11T23:12:07.909Z,5.40
2018-09-11T23:14:36.422Z,4.60
2018-09-11T23:17:05.307Z,4.63
2018-09-11T23:19:33.841Z,5.20
2018-09-11T23:22:02.823Z,5.00
2018-09-11T23:24:31.330Z,4.90
2018-09-11T23:26:59.831Z,4.97
2018-09-11T23:29:28.344Z,4.63
2018-09-11T23:31:56.833Z,5.23
2018-09-11T23:34:25.385Z,5.03
2018-09-11T23:36:53.860Z,4.70
2018-09-11T23:39:22.489Z,5.03
2018-09-11T23:41:51.044Z,4.60
2018-09-11T23:44:19.615Z,4.83
2018-09-11T23:46:48.118Z,5.00
2018-09-11T23:49:16.622Z,5.33
2018-09-11T23:51:45.208Z,4.80
2018-09-11T23:54:13.686Z,4.83
2018-09-11T23:56:42.207Z,4.50
2018-09-11T23:59:10.691Z,4.43
